Time;durP1;ratioP1;P1;durP2;ratioP2;P2;SDS_P1;SDS_P2;PMS_P1;PMS_P2;Temp;Humidity;BMP_temperature;BMP_pressure;BME280_temperature;BME280_humidity;BME280_pressure;Samples;Min_cycle;Max_cycle;Signal;HPM_P1;HPM_P2
2023/10/26 00:01:23;;;;;;;0.30;0.30;;;;;;;;;;6331585;22;20046;-94
2023/10/26 00:03:49;;;;;;;0.30;0.30;;;;;;;;;;6278398;22;20019;-92
2023/10/26 00:08:51;;;;;;;0.32;0.32;;;;;;;;;;6322112;22;20041;-93
2023/10/26 00:50:14;;;;;;;0.30;0.30;;;;;;;;;;6298920;22;20023;-93
2023/10/26 00:52:41;;;;;;;0.50;0.50;;;;;;;;;;6248312;22;20080;-93
2023/10/26 01:02:55;;;;;;;0.30;0.30;;;;;;;;;;6327479;22;20022;-93
2023/10/26 01:05:24;;;;;;;0.30;0.30;;;;;;;;;;6278669;22;20022;-95
2023/10/26 01:07:50;;;;;;;0.30;0.30;;;;;;;;;;6234007;22;20079;-94
2023/10/26 01:10:16;;;;;;;0.30;0.30;;;;;;;;;;6278962;22;20026;-95
2023/10/26 01:15:18;;;;;;;0.30;0.30;;;;;;;;;;6305206;22;20067;-95
2023/10/26 01:28:08;;;;;;;0.30;0.30;;;;;;;;;;6294670;22;20050;-94
2023/10/26 01:33:10;;;;;;;0.30;0.30;;;;;;;;;;6328837;22;20031;-93
2023/10/26 01:48:35;;;;;;;0.30;0.30;;;;;;;;;;6296956;22;20020;-95
2023/10/26 01:51:01;;;;;;;0.30;0.30;;;;;;;;;;6245788;22;20026;-96
2023/10/26 01:53:27;;;;;;;0.30;0.30;;;;;;;;;;6245921;22;20023;-95
2023/10/26 01:55:53;;;;;;;0.30;0.30;;;;;;;;;;6246036;22;20023;-94
2023/10/26 01:58:20;;;;;;;0.40;0.40;;;;;;;;;;6271099;22;20019;-94
2023/10/26 02:03:22;;;;;;;0.22;0.22;;;;;;;;;;6328777;22;20026;-93
2023/10/26 02:16:13;;;;;;;0.22;0.22;;;;;;;;;;6285931;22;20023;-96
2023/10/26 02:18:40;;;;;;;0.45;0.45;;;;;;;;;;6276382;22;20019;-95
2023/10/26 02:21:06;;;;;;;0.30;0.30;;;;;;;;;;6276387;22;20030;-92
2023/10/26 02:59:54;;;;;;;0.40;0.40;;;;;;;;;;6331996;22;20042;-96
2023/10/26 03:07:31;;;;;;;0.63;0.63;;;;;;;;;;6301039;22;20020;-93
2023/10/26 03:20:21;;;;;;;0.20;0.20;;;;;;;;;;6300552;22;20016;-94
2023/10/26 03:25:26;;;;;;;0.30;0.30;;;;;;;;;;6329072;22;20031;-94
2023/10/26 03:27:52;;;;;;;0.30;0.30;;;;;;;;;;6278525;22;20083;-95
2023/10/26 03:32:54;;;;;;;0.50;0.50;;;;;;;;;;6328591;22;20026;-93
2023/10/26 03:35:23;;;;;;;0.30;0.30;;;;;;;;;;6279874;22;20043;-95
2023/10/26 03:45:40;;;;;;;0.40;0.40;;;;;;;;;;6331926;22;20069;-95
2023/10/26 03:48:06;;;;;;;0.30;0.30;;;;;;;;;;6279192;22;20022;-94
2023/10/26 03:53:16;;;;;;;0.43;0.43;;;;;;;;;;6292393;22;20034;-94
2023/10/26 03:58:24;;;;;;;0.43;0.43;;;;;;;;;;6330157;22;20067;-92
2023/10/26 04:03:25;;;;;;;0.30;0.30;;;;;;;;;;6298470;22;20011;-93
2023/10/26 04:11:03;;;;;;;0.40;0.40;;;;;;;;;;6330859;22;19999;-94
2023/10/26 04:13:30;;;;;;;0.40;0.40;;;;;;;;;;6277427;22;20015;-94
2023/10/26 04:16:03;;;;;;;0.40;0.40;;;;;;;;;;6277971;22;20007;-94
2023/10/26 04:18:29;;;;;;;0.40;0.40;;;;;;;;;;6277984;22;20019;-95
2023/10/26 04:20:56;;;;;;;0.30;0.30;;;;;;;;;;6280010;22;20019;-94
2023/10/26 04:23:22;;;;;;;0.45;0.45;;;;;;;;;;6253310;22;20025;-94
2023/10/26 04:25:48;;;;;;;0.40;0.40;;;;;;;;;;6254446;22;20370;-93
2023/10/26 04:28:15;;;;;;;0.40;0.40;;;;;;;;;;6277789;22;20071;-93
2023/10/26 04:30:43;;;;;;;0.30;0.30;;;;;;;;;;6278805;22;20019;-94
2023/10/26 04:33:09;;;;;;;0.30;0.30;;;;;;;;;;6278293;22;20042;-93
2023/10/26 04:38:46;;;;;;;0.38;0.38;;;;;;;;;;6328718;22;20034;-94
2023/10/26 04:41:13;;;;;;;0.40;0.40;;;;;;;;;;6303905;22;20019;-94
2023/10/26 04:43:39;;;;;;;0.40;0.40;;;;;;;;;;6278371;22;20019;-92
2023/10/26 04:56:31;;;;;;;0.38;0.38;;;;;;;;;;6329766;22;19999;-94
2023/10/26 05:04:10;;;;;;;0.30;0.30;;;;;;;;;;6329430;22;20020;-92
2023/10/26 05:11:48;;;;;;;0.30;0.30;;;;;;;;;;6330998;22;20030;-94
2023/10/26 05:14:14;;;;;;;0.40;0.40;;;;;;;;;;6276854;22;20458;-93
2023/10/26 05:16:41;;;;;;;0.40;0.40;;;;;;;;;;6278802;22;20056;-93
2023/10/26 05:19:07;;;;;;;0.40;0.40;;;;;;;;;;6277919;22;20015;-92
2023/10/26 05:21:33;;;;;;;0.40;0.40;;;;;;;;;;6278415;22;20038;-92
2023/10/26 05:23:59;;;;;;;0.20;0.20;;;;;;;;;;6277479;22;20023;-94
2023/10/26 05:26:25;;;;;;;0.30;0.30;;;;;;;;;;6278456;22;20025;-94
2023/10/26 05:28:51;;;;;;;0.40;0.40;;;;;;;;;;6277340;22;20034;-92
2023/10/26 05:39:05;;;;;;;0.30;0.30;;;;;;;;;;6325578;22;20023;-93
2023/10/26 05:41:32;;;;;;;0.30;0.30;;;;;;;;;;6278055;22;20050;-94
2023/10/26 05:49:10;;;;;;;0.40;0.40;;;;;;;;;;6321962;22;20301;-92
2023/10/26 05:51:36;;;;;;;0.38;0.38;;;;;;;;;;6277236;22;20027;-94
2023/10/26 05:54:02;;;;;;;0.32;0.32;;;;;;;;;;6276015;22;20012;-94
2023/10/26 05:56:31;;;;;;;0.30;0.30;;;;;;;;;;6277750;22;20019;-94
2023/10/26 05:59:01;;;;;;;0.30;0.30;;;;;;;;;;6303741;22;20011;-94
2023/10/26 06:01:27;;;;;;;0.20;0.20;;;;;;;;;;6279680;22;20015;-94
2023/10/26 06:58:23;;;;;;;0.30;0.30;;;;;;;;;;6267482;22;20016;-89
2023/10/26 07:00:58;;;;;;;;;;;;;;;;;;6188433;23;20020;-89
2023/10/26 07:03:25;;;;;;;0.40;0.40;;;;;;;;;;6187802;23;19938;-92
2023/10/26 07:08:28;;;;;;;0.30;0.30;;;;;;;;;;6278527;22;20019;-90
2023/10/26 07:21:19;;;;;;;0.30;0.30;;;;;;;;;;6287468;22;20047;-90
2023/10/26 07:23:51;;;;;;;0.40;0.40;;;;;;;;;;6281260;22;20007;-90
2023/10/26 07:45:25;;;;;;;0.40;0.40;;;;;;;;;;6297939;22;20010;-93
2023/10/26 07:50:31;;;;;;;0.30;0.30;;;;;;;;;;6300189;22;20494;-94
2023/10/26 07:58:18;;;;;;;0.30;0.30;;;;;;;;;;6327009;22;20056;-90
2023/10/26 08:00:44;;;;;;;0.43;0.43;;;;;;;;;;6279875;22;20007;-92
2023/10/26 08:13:33;;;;;;;0.30;0.30;;;;;;;;;;6299759;22;20028;-91
2023/10/26 08:16:29;;;;;;;0.30;0.30;;;;;;;;;;6271176;22;20020;-89
2023/10/26 08:19:04;;;;;;;0.30;0.30;;;;;;;;;;6238738;22;20018;-88
2023/10/26 08:21:56;;;;;;;0.30;0.30;;;;;;;;;;6246756;22;20039;-87
2023/10/26 08:26:58;;;;;;;0.20;0.20;;;;;;;;;;6305193;22;20045;-93
2023/10/26 08:32:01;;;;;;;0.28;0.28;;;;;;;;;;6316841;22;20023;-90
2023/10/26 08:47:33;;;;;;;0.40;0.40;;;;;;;;;;6294709;22;20067;-89
2023/10/26 08:53:04;;;;;;;0.30;0.30;;;;;;;;;;6306579;22;20024;-89
2023/10/26 09:00:41;;;;;;;0.40;0.40;;;;;;;;;;6326686;22;20083;-88
2023/10/26 09:03:11;;;;;;;0.30;0.30;;;;;;;;;;6301915;22;20019;-89
2023/10/26 09:05:58;;;;;;;0.30;0.30;;;;;;;;;;6278264;22;20019;-87
2023/10/26 09:08:27;;;;;;;0.28;0.28;;;;;;;;;;6279990;22;20026;-88
2023/10/26 09:19:15;;;;;;;0.20;0.20;;;;;;;;;;6324604;22;19899;-90
2023/10/26 09:21:56;;;;;;;0.30;0.30;;;;;;;;;;6279602;22;20007;-90
2023/10/26 09:24:37;;;;;;;0.20;0.20;;;;;;;;;;6282398;22;20004;-89
2023/10/26 09:51:04;;;;;;;0.20;0.20;;;;;;;;;;6322038;22;20106;-89
2023/10/26 09:53:36;;;;;;;0.30;0.30;;;;;;;;;;6329792;22;20014;-90
2023/10/26 09:56:29;;;;;;;0.20;0.20;;;;;;;;;;6306786;22;20019;-88
2023/10/26 10:56:23;;;;;;;0.20;0.20;;;;;;;;;;6309150;22;20023;-92
2023/10/26 10:59:04;;;;;;;0.20;0.20;;;;;;;;;;6303872;22;20009;-92
2023/10/26 11:17:47;;;;;;;0.20;0.20;;;;;;;;;;6329587;22;20097;-92
2023/10/26 11:28:32;;;;;;;0.30;0.30;;;;;;;;;;6299617;22;20027;-91
2023/10/26 11:36:17;;;;;;;0.35;0.35;;;;;;;;;;6304922;22;20003;-91
2023/10/26 11:38:49;;;;;;;0.30;0.30;;;;;;;;;;6280951;22;20019;-91
2023/10/26 12:13:02;;;;;;;0.20;0.20;;;;;;;;;;6299418;22;20018;-88
2023/10/26 12:15:33;;;;;;;0.30;0.30;;;;;;;;;;6305670;22;20015;-88
2023/10/26 12:17:59;;;;;;;0.28;0.28;;;;;;;;;;6274533;22;19999;-87
2023/10/26 12:20:40;;;;;;;0.20;0.20;;;;;;;;;;6284434;22;20022;-88
2023/10/26 12:23:06;;;;;;;0.20;0.20;;;;;;;;;;6280332;22;20015;-87
2023/10/26 12:25:34;;;;;;;0.20;0.20;;;;;;;;;;6279859;22;20019;-86
2023/10/26 12:28:00;;;;;;;0.20;0.20;;;;;;;;;;6307918;22;20090;-90
2023/10/26 12:30:27;;;;;;;0.40;0.40;;;;;;;;;;6278339;22;20023;-87
2023/10/26 12:32:58;;;;;;;0.30;0.30;;;;;;;;;;6277774;22;20018;-86
2023/10/26 12:35:24;;;;;;;0.30;0.30;;;;;;;;;;6278794;22;20015;-89
2023/10/26 12:37:50;;;;;;;0.30;0.30;;;;;;;;;;6268369;22;20021;-86
2023/10/26 12:40:18;;;;;;;0.30;0.30;;;;;;;;;;6277713;22;20015;-86
2023/10/26 12:42:49;;;;;;;0.40;0.40;;;;;;;;;;6277765;22;20022;-86
2023/10/26 12:45:17;;;;;;;0.30;0.30;;;;;;;;;;6271598;22;20023;-86
2023/10/26 12:47:49;;;;;;;0.40;0.40;;;;;;;;;;6275683;22;20011;-87
2023/10/26 12:50:18;;;;;;;0.22;0.22;;;;;;;;;;6301165;22;20474;-87
2023/10/26 12:52:59;;;;;;;0.30;0.30;;;;;;;;;;6301033;22;20015;-86
2023/10/26 12:55:32;;;;;;;0.30;0.30;;;;;;;;;;6282303;22;20049;-86
2023/10/26 12:57:59;;;;;;;0.40;0.40;;;;;;;;;;6246820;22;20454;-87
2023/10/26 13:00:40;;;;;;;0.73;0.73;;;;;;;;;;6274492;22;20114;-87
2023/10/26 13:03:37;;;;;;;0.20;0.20;;;;;;;;;;6307727;22;20026;-85
2023/10/26 13:06:29;;;;;;;0.30;0.30;;;;;;;;;;6302877;22;20019;-85
2023/10/26 13:09:05;;;;;;;0.40;0.40;;;;;;;;;;6272382;22;20019;-86
2023/10/26 13:11:42;;;;;;;0.30;0.30;;;;;;;;;;6304824;22;20019;-88
2023/10/26 13:14:31;;;;;;;0.38;0.38;;;;;;;;;;6331917;22;20065;-87
2023/10/26 13:17:14;;;;;;;0.20;0.20;;;;;;;;;;6325948;22;20122;-86
2023/10/26 13:19:41;;;;;;;0.30;0.30;;;;;;;;;;6268358;22;20031;-85
2023/10/26 13:22:07;;;;;;;0.30;0.30;;;;;;;;;;6304552;22;20019;-86
2023/10/26 13:24:58;;;;;;;0.25;0.25;;;;;;;;;;6304056;22;20023;-89
2023/10/26 13:27:25;;;;;;;0.15;0.15;;;;;;;;;;6278931;22;20019;-87
2023/10/26 13:29:54;;;;;;;0.20;0.20;;;;;;;;;;6305153;22;20024;-86
2023/10/26 13:32:23;;;;;;;0.10;0.10;;;;;;;;;;6275820;22;20023;-89
2023/10/26 13:34:52;;;;;;;0.35;0.35;;;;;;;;;;6269558;22;20062;-87
2023/10/26 13:37:21;;;;;;;0.10;0.10;;;;;;;;;;6272696;22;20018;-87
2023/10/26 13:39:48;;;;;;;0.30;0.30;;;;;;;;;;6277320;22;20023;-85
2023/10/26 13:42:14;;;;;;;0.30;0.30;;;;;;;;;;6271763;22;20048;-86
2023/10/26 13:44:50;;;;;;;0.20;0.20;;;;;;;;;;6303932;22;20015;-87
2023/10/26 13:47:16;;;;;;;0.40;0.40;;;;;;;;;;6275654;22;20011;-87
2023/10/26 13:49:52;;;;;;;0.25;0.25;;;;;;;;;;6294995;22;20484;-87
2023/10/26 13:52:18;;;;;;;;;;;;;;;;;;6300140;22;20025;-86
2023/10/26 13:54:46;;;;;;;0.20;0.20;;;;;;;;;;6274703;22;19938;-86
2023/10/26 13:57:12;;;;;;;0.20;0.20;;;;;;;;;;6298489;22;20016;-87
2023/10/26 13:59:39;;;;;;;0.20;0.20;;;;;;;;;;6273378;22;20003;-87
2023/10/26 14:02:19;;;;;;;0.30;0.30;;;;;;;;;;6273282;22;20015;-87
2023/10/26 14:04:47;;;;;;;0.20;0.20;;;;;;;;;;6326981;22;19999;-85
2023/10/26 14:07:16;;;;;;;0.22;0.22;;;;;;;;;;6299985;22;20022;-86
2023/10/26 14:09:43;;;;;;;0.30;0.30;;;;;;;;;;6273942;22;20057;-87
2023/10/26 14:12:10;;;;;;;0.20;0.20;;;;;;;;;;6274554;22;20019;-87
2023/10/26 14:14:39;;;;;;;0.30;0.30;;;;;;;;;;6273292;22;20025;-86
2023/10/26 14:17:05;;;;;;;0.20;0.20;;;;;;;;;;6299296;22;20015;-86
2023/10/26 14:19:31;;;;;;;0.82;0.82;;;;;;;;;;6269882;22;20011;-86
2023/10/26 14:21:57;;;;;;;0.20;0.20;;;;;;;;;;6302062;22;20023;-88
2023/10/26 14:24:23;;;;;;;0.20;0.20;;;;;;;;;;6328255;22;20015;-87
2023/10/26 14:27:12;;;;;;;0.30;0.30;;;;;;;;;;6317675;22;20346;-86
2023/10/26 14:29:41;;;;;;;0.30;0.30;;;;;;;;;;6299428;22;20023;-88
2023/10/26 14:32:07;;;;;;;0.20;0.20;;;;;;;;;;6321894;22;20019;-87
2023/10/26 14:34:33;;;;;;;0.30;0.30;;;;;;;;;;6301219;22;20015;-88
2023/10/26 14:37:01;;;;;;;0.20;0.20;;;;;;;;;;6304664;22;20015;-87
2023/10/26 14:39:34;;;;;;;0.15;0.15;;;;;;;;;;6332130;22;20022;-86
2023/10/26 14:42:02;;;;;;;0.28;0.28;;;;;;;;;;6332886;22;20011;-87
2023/10/26 14:44:28;;;;;;;0.20;0.20;;;;;;;;;;6299611;22;20026;-88
2023/10/26 14:46:56;;;;;;;0.30;0.30;;;;;;;;;;6301958;22;20011;-87
2023/10/26 14:49:32;;;;;;;0.20;0.20;;;;;;;;;;6334147;22;20090;-87
2023/10/26 14:51:59;;;;;;;0.30;0.30;;;;;;;;;;6302031;22;20022;-88
2023/10/26 14:54:32;;;;;;;0.20;0.20;;;;;;;;;;6333584;22;20086;-86
2023/10/26 14:57:00;;;;;;;0.20;0.20;;;;;;;;;;6331875;22;20015;-87
2023/10/26 14:59:27;;;;;;;0.40;0.40;;;;;;;;;;6276095;22;20065;-89
2023/10/26 15:01:56;;;;;;;0.30;0.30;;;;;;;;;;6274906;22;20018;-87
2023/10/26 15:04:22;;;;;;;0.22;0.22;;;;;;;;;;6304845;22;20015;-87
2023/10/26 15:06:51;;;;;;;0.30;0.30;;;;;;;;;;6332708;22;20094;-87
2023/10/26 15:09:22;;;;;;;0.20;0.20;;;;;;;;;;6305441;22;20054;-85
2023/10/26 15:12:03;;;;;;;0.20;0.20;;;;;;;;;;6304154;22;20019;-88
2023/10/26 15:14:33;;;;;;;0.20;0.20;;;;;;;;;;6331407;22;20004;-86
2023/10/26 15:17:02;;;;;;;0.28;0.28;;;;;;;;;;6302854;22;20011;-87
2023/10/26 15:19:35;;;;;;;0.28;0.28;;;;;;;;;;6306095;22;20030;-86
2023/10/26 15:22:12;;;;;;;0.28;0.28;;;;;;;;;;6307396;22;20030;-87
2023/10/26 15:24:47;;;;;;;0.20;0.20;;;;;;;;;;6327354;22;20015;-86
2023/10/26 15:27:19;;;;;;;0.30;0.30;;;;;;;;;;6280844;22;20019;-86
2023/10/26 15:29:48;;;;;;;0.10;0.10;;;;;;;;;;6280343;22;20007;-87
2023/10/26 15:32:32;;;;;;;0.20;0.20;;;;;;;;;;6281267;22;20016;-87
2023/10/26 15:35:01;;;;;;;0.20;0.20;;;;;;;;;;6323758;22;20015;-86
2023/10/26 15:37:30;;;;;;;0.30;0.30;;;;;;;;;;6301736;22;20027;-86
2023/10/26 15:40:23;;;;;;;0.20;0.20;;;;;;;;;;6273542;22;20070;-86
2023/10/26 15:42:49;;;;;;;0.20;0.20;;;;;;;;;;6292355;22;20042;-87
2023/10/26 15:45:16;;;;;;;0.20;0.20;;;;;;;;;;6272998;22;20054;-87
2023/10/26 15:47:43;;;;;;;0.20;0.20;;;;;;;;;;6270115;22;20027;-85
2023/10/26 15:50:10;;;;;;;0.20;0.20;;;;;;;;;;6271441;22;20019;-88
2023/10/26 15:52:36;;;;;;;0.20;0.20;;;;;;;;;;6272378;22;20332;-86
2023/10/26 15:55:02;;;;;;;0.30;0.30;;;;;;;;;;6298104;22;20079;-87
2023/10/26 15:57:31;;;;;;;0.30;0.30;;;;;;;;;;6281479;22;20022;-88
2023/10/26 15:59:57;;;;;;;0.30;0.30;;;;;;;;;;6275578;22;20015;-88
2023/10/26 16:02:23;;;;;;;0.30;0.30;;;;;;;;;;6268021;22;20022;-87
2023/10/26 16:05:13;;;;;;;0.22;0.22;;;;;;;;;;6277056;22;20026;-86
2023/10/26 16:07:42;;;;;;;0.20;0.20;;;;;;;;;;6296369;22;20039;-88
2023/10/26 16:10:09;;;;;;;0.20;0.20;;;;;;;;;;6269618;22;20019;-87
2023/10/26 16:12:41;;;;;;;0.20;0.20;;;;;;;;;;6334222;22;20012;-86
2023/10/26 16:15:27;;;;;;;0.28;0.28;;;;;;;;;;6300575;22;20015;-87
2023/10/26 16:17:57;;;;;;;0.20;0.20;;;;;;;;;;6270930;22;20019;-86
2023/10/26 16:20:27;;;;;;;0.30;0.30;;;;;;;;;;6322806;22;20128;-87
2023/10/26 16:22:58;;;;;;;0.30;0.30;;;;;;;;;;6280674;22;20034;-87
2023/10/26 16:25:31;;;;;;;0.40;0.40;;;;;;;;;;6268400;22;20098;-87
2023/10/26 16:27:58;;;;;;;0.40;0.40;;;;;;;;;;6292670;22;20019;-87
2023/10/26 16:30:24;;;;;;;0.20;0.20;;;;;;;;;;6274677;22;20030;-87
2023/10/26 16:32:51;;;;;;;0.32;0.32;;;;;;;;;;6282202;22;20015;-85
2023/10/26 16:35:17;;;;;;;0.30;0.30;;;;;;;;;;6267637;22;20011;-85
2023/10/26 16:37:43;;;;;;;0.30;0.30;;;;;;;;;;6264978;22;20050;-86
2023/10/26 16:40:16;;;;;;;0.30;0.30;;;;;;;;;;6268995;22;20053;-87
2023/10/26 16:42:46;;;;;;;0.20;0.20;;;;;;;;;;6279329;22;20018;-86
2023/10/26 16:45:31;;;;;;;0.38;0.38;;;;;;;;;;6309907;22;20009;-87
2023/10/26 16:47:57;;;;;;;0.20;0.20;;;;;;;;;;6263240;22;20021;-86
2023/10/26 16:50:23;;;;;;;0.30;0.30;;;;;;;;;;6263046;22;20015;-88
2023/10/26 16:52:50;;;;;;;0.25;0.25;;;;;;;;;;6275966;22;20006;-86
2023/10/26 16:55:16;;;;;;;0.20;0.20;;;;;;;;;;6322389;22;20011;-86
2023/10/26 16:57:42;;;;;;;0.20;0.20;;;;;;;;;;6289872;22;20090;-88
2023/10/26 17:00:11;;;;;;;0.30;0.30;;;;;;;;;;6263898;22;20011;-88
2023/10/26 17:02:38;;;;;;;0.35;0.35;;;;;;;;;;6280604;22;19999;-87
2023/10/26 17:05:08;;;;;;;0.20;0.20;;;;;;;;;;6283069;22;20020;-84
2023/10/26 17:07:37;;;;;;;0.22;0.22;;;;;;;;;;6267987;22;20379;-87
2023/10/26 17:10:11;;;;;;;0.30;0.30;;;;;;;;;;6268012;22;20007;-85
2023/10/26 17:12:38;;;;;;;0.20;0.20;;;;;;;;;;6267152;22;20015;-85
2023/10/26 17:15:09;;;;;;;0.30;0.30;;;;;;;;;;6270866;22;20000;-87
2023/10/26 17:17:35;;;;;;;0.38;0.38;;;;;;;;;;6281469;22;20019;-88
2023/10/26 17:20:07;;;;;;;0.30;0.30;;;;;;;;;;6297496;22;20014;-87
2023/10/26 17:22:34;;;;;;;0.30;0.30;;;;;;;;;;6318525;22;20006;-87
2023/10/26 17:25:02;;;;;;;0.30;0.30;;;;;;;;;;6323961;22;20029;-87
2023/10/26 17:27:34;;;;;;;0.73;0.73;;;;;;;;;;6292944;22;20053;-84
2023/10/26 17:30:01;;;;;;;0.30;0.30;;;;;;;;;;6291338;22;20045;-87
2023/10/26 17:32:27;;;;;;;0.30;0.30;;;;;;;;;;6301427;22;20015;-85
2023/10/26 17:34:54;;;;;;;0.38;0.38;;;;;;;;;;6300025;22;20016;-86
2023/10/26 17:37:20;;;;;;;0.30;0.30;;;;;;;;;;6290654;22;20019;-87
2023/10/26 17:39:47;;;;;;;0.40;0.40;;;;;;;;;;6293674;22;19999;-86
2023/10/26 17:42:16;;;;;;;0.32;0.32;;;;;;;;;;6329486;22;20091;-86
2023/10/26 17:44:43;;;;;;;0.20;0.20;;;;;;;;;;6294002;22;20026;-86
2023/10/26 17:47:20;;;;;;;0.30;0.30;;;;;;;;;;6317425;22;20015;-87
2023/10/26 17:49:46;;;;;;;0.20;0.20;;;;;;;;;;6315967;22;20015;-88
2023/10/26 17:52:15;;;;;;;0.30;0.30;;;;;;;;;;6301937;22;20030;-85
2023/10/26 17:54:41;;;;;;;0.40;0.40;;;;;;;;;;6288506;22;20104;-86
2023/10/26 17:57:07;;;;;;;0.30;0.30;;;;;;;;;;6295105;22;20041;-88
2023/10/26 17:59:36;;;;;;;0.20;0.20;;;;;;;;;;6306214;22;20015;-86
2023/10/26 18:02:05;;;;;;;0.30;0.30;;;;;;;;;;6324974;22;20022;-87
2023/10/26 18:04:32;;;;;;;0.30;0.30;;;;;;;;;;6289198;22;20400;-86
2023/10/26 18:07:01;;;;;;;0.20;0.20;;;;;;;;;;6316845;22;20019;-87
2023/10/26 18:09:29;;;;;;;0.30;0.30;;;;;;;;;;6289830;22;20331;-87
2023/10/26 18:11:55;;;;;;;0.30;0.30;;;;;;;;;;6292907;22;20042;-86
2023/10/26 18:14:27;;;;;;;0.20;0.20;;;;;;;;;;6297440;22;20026;-86
2023/10/26 18:16:54;;;;;;;0.30;0.30;;;;;;;;;;6323886;22;20020;-87
2023/10/26 18:19:27;;;;;;;0.30;0.30;;;;;;;;;;6297896;22;20046;-87
2023/10/26 18:21:53;;;;;;;0.30;0.30;;;;;;;;;;6322743;22;20015;-87
2023/10/26 18:24:24;;;;;;;0.20;0.20;;;;;;;;;;6291627;22;20026;-86
2023/10/26 18:26:50;;;;;;;0.30;0.30;;;;;;;;;;6305493;22;20422;-87
2023/10/26 18:29:16;;;;;;;0.30;0.30;;;;;;;;;;6301985;22;20019;-88
2023/10/26 18:31:42;;;;;;;0.30;0.30;;;;;;;;;;6292625;22;20050;-86
2023/10/26 18:34:08;;;;;;;0.30;0.30;;;;;;;;;;6322824;22;20045;-86
2023/10/26 18:36:38;;;;;;;0.20;0.20;;;;;;;;;;6291224;22;20023;-87
2023/10/26 18:39:09;;;;;;;0.30;0.30;;;;;;;;;;6296849;22;20033;-87
2023/10/26 18:41:39;;;;;;;0.30;0.30;;;;;;;;;;6326657;22;20022;-87
2023/10/26 18:44:05;;;;;;;0.32;0.32;;;;;;;;;;6316980;22;20043;-87
2023/10/26 18:46:32;;;;;;;0.30;0.30;;;;;;;;;;6291497;22;20054;-88
2023/10/26 18:48:58;;;;;;;0.30;0.30;;;;;;;;;;6290888;22;20427;-85
2023/10/26 18:51:44;;;;;;;0.30;0.30;;;;;;;;;;6298119;22;20045;-85
2023/10/26 18:54:30;;;;;;;0.30;0.30;;;;;;;;;;6322974;22;20049;-87
2023/10/26 18:57:03;;;;;;;0.30;0.30;;;;;;;;;;6300409;22;20098;-87
2023/10/26 18:59:37;;;;;;;0.20;0.20;;;;;;;;;;6324590;22;20030;-88
2023/10/26 19:02:43;;;;;;;0.20;0.20;;;;;;;;;;6297270;22;20026;-85
2023/10/26 19:05:10;;;;;;;0.30;0.30;;;;;;;;;;6306679;22;19995;-87
2023/10/26 19:07:52;;;;;;;0.20;0.20;;;;;;;;;;6319674;22;20040;-84
2023/10/26 19:10:21;;;;;;;0.20;0.20;;;;;;;;;;6292539;22;20068;-87
2023/10/26 19:12:52;;;;;;;0.30;0.30;;;;;;;;;;6321621;22;20015;-87
2023/10/26 19:15:18;;;;;;;0.30;0.30;;;;;;;;;;6290053;22;20015;-86
2023/10/26 19:17:46;;;;;;;0.20;0.20;;;;;;;;;;6290247;22;20023;-86
2023/10/26 19:20:17;;;;;;;0.30;0.30;;;;;;;;;;6289962;22;20015;-87
2023/10/26 19:22:43;;;;;;;0.30;0.30;;;;;;;;;;6297517;22;20019;-86
2023/10/26 19:25:09;;;;;;;0.30;0.30;;;;;;;;;;6292568;22;20049;-85
2023/10/26 19:27:35;;;;;;;0.20;0.20;;;;;;;;;;6302865;22;20010;-86
2023/10/26 19:30:01;;;;;;;0.30;0.30;;;;;;;;;;6291181;22;20019;-87
2023/10/26 19:32:27;;;;;;;0.30;0.30;;;;;;;;;;6326713;22;20003;-86
2023/10/26 19:34:59;;;;;;;0.20;0.20;;;;;;;;;;6292840;22;20006;-86
2023/10/26 19:37:26;;;;;;;0.20;0.20;;;;;;;;;;6306573;22;20006;-88
2023/10/26 19:40:05;;;;;;;0.30;0.30;;;;;;;;;;6333586;22;20023;-85
2023/10/26 19:42:37;;;;;;;0.30;0.30;;;;;;;;;;6310292;22;19999;-86
2023/10/26 19:45:07;;;;;;;0.40;0.40;;;;;;;;;;6266498;22;20105;-89
2023/10/26 19:47:34;;;;;;;0.30;0.30;;;;;;;;;;6294997;22;20042;-88
2023/10/26 19:50:12;;;;;;;0.20;0.20;;;;;;;;;;6282881;22;20062;-88
2023/10/26 19:52:45;;;;;;;0.30;0.30;;;;;;;;;;6306611;22;20007;-87
2023/10/26 19:55:23;;;;;;;0.30;0.30;;;;;;;;;;6328948;22;20473;-88
2023/10/26 19:57:49;;;;;;;0.40;0.40;;;;;;;;;;6297124;22;20026;-88
2023/10/26 20:00:16;;;;;;;0.30;0.30;;;;;;;;;;6304121;22;20011;-88
2023/10/26 20:02:45;;;;;;;0.20;0.20;;;;;;;;;;6306064;22;20038;-87
2023/10/26 20:05:25;;;;;;;0.30;0.30;;;;;;;;;;6322952;22;20019;-88
2023/10/26 20:07:51;;;;;;;0.30;0.30;;;;;;;;;;6298542;22;20019;-86
2023/10/26 20:10:17;;;;;;;0.30;0.30;;;;;;;;;;6320088;22;20457;-86
2023/10/26 20:12:49;;;;;;;0.30;0.30;;;;;;;;;;6322887;22;20068;-87
2023/10/26 20:15:17;;;;;;;0.30;0.30;;;;;;;;;;6315490;22;20022;-86
2023/10/26 20:18:06;;;;;;;0.30;0.30;;;;;;;;;;6323749;22;20066;-85
2023/10/26 20:20:32;;;;;;;0.22;0.22;;;;;;;;;;6295304;22;20018;-87
2023/10/26 20:22:58;;;;;;;0.30;0.30;;;;;;;;;;6293986;22;20011;-87
2023/10/26 20:25:24;;;;;;;0.30;0.30;;;;;;;;;;6295125;22;20438;-86
2023/10/26 20:27:51;;;;;;;0.20;0.20;;;;;;;;;;6298293;22;20011;-86
2023/10/26 20:30:18;;;;;;;0.20;0.20;;;;;;;;;;6290979;22;20068;-87
2023/10/26 20:32:45;;;;;;;0.30;0.30;;;;;;;;;;6302352;22;20090;-86
2023/10/26 20:35:11;;;;;;;0.22;0.22;;;;;;;;;;6304259;22;20011;-88
2023/10/26 20:37:39;;;;;;;0.20;0.20;;;;;;;;;;6321837;22;20022;-87
2023/10/26 20:40:08;;;;;;;0.25;0.25;;;;;;;;;;6289653;22;20015;-87
2023/10/26 20:42:36;;;;;;;0.30;0.30;;;;;;;;;;6290896;22;20453;-86
2023/10/26 20:45:02;;;;;;;0.30;0.30;;;;;;;;;;6323728;22;20003;-87
2023/10/26 20:47:28;;;;;;;0.30;0.30;;;;;;;;;;6290985;22;20327;-87
2023/10/26 20:50:03;;;;;;;0.20;0.20;;;;;;;;;;6301503;22;20003;-87
2023/10/26 20:52:32;;;;;;;0.40;0.40;;;;;;;;;;6299408;22;20022;-87
2023/10/26 20:54:58;;;;;;;0.30;0.30;;;;;;;;;;6288116;22;20019;-88
2023/10/26 20:57:27;;;;;;;0.30;0.30;;;;;;;;;;6299624;22;20038;-86
2023/10/26 20:59:53;;;;;;;0.30;0.30;;;;;;;;;;6287068;22;20015;-87
2023/10/26 21:02:39;;;;;;;0.30;0.30;;;;;;;;;;6314494;22;20092;-87
2023/10/26 21:05:06;;;;;;;0.22;0.22;;;;;;;;;;6329527;22;20046;-88
2023/10/26 21:07:32;;;;;;;0.38;0.38;;;;;;;;;;6294271;22;20042;-88
2023/10/26 21:09:59;;;;;;;0.30;0.30;;;;;;;;;;6286753;22;20034;-87
2023/10/26 21:12:28;;;;;;;0.32;0.32;;;;;;;;;;6291325;22;20446;-87
2023/10/26 21:14:54;;;;;;;0.30;0.30;;;;;;;;;;6317652;22;20023;-87
2023/10/26 21:17:20;;;;;;;0.30;0.30;;;;;;;;;;6289888;22;20018;-86
2023/10/26 21:19:46;;;;;;;0.30;0.30;;;;;;;;;;6263831;22;20457;-87
2023/10/26 21:22:14;;;;;;;0.28;0.28;;;;;;;;;;6279164;22;20337;-86
2023/10/26 21:24:51;;;;;;;0.30;0.30;;;;;;;;;;6296694;22;20023;-87
2023/10/26 21:27:17;;;;;;;0.30;0.30;;;;;;;;;;6267891;22;20019;-87
2023/10/26 21:29:44;;;;;;;0.38;0.38;;;;;;;;;;6289810;22;20072;-87
2023/10/26 21:32:16;;;;;;;0.40;0.40;;;;;;;;;;6276201;22;20007;-87
2023/10/26 21:34:52;;;;;;;0.30;0.30;;;;;;;;;;6297032;22;20019;-88
2023/10/26 21:37:19;;;;;;;0.30;0.30;;;;;;;;;;6273780;22;20473;-86
2023/10/26 21:39:45;;;;;;;0.30;0.30;;;;;;;;;;6264994;22;20117;-87
2023/10/26 21:42:20;;;;;;;0.30;0.30;;;;;;;;;;6272231;22;20038;-86
2023/10/26 21:44:54;;;;;;;0.30;0.30;;;;;;;;;;6274662;22;20019;-85
2023/10/26 21:47:29;;;;;;;0.30;0.30;;;;;;;;;;6293289;22;20023;-87
2023/10/26 21:50:03;;;;;;;0.40;0.40;;;;;;;;;;6299529;22;20019;-87
2023/10/26 21:52:29;;;;;;;0.32;0.32;;;;;;;;;;6269645;22;20091;-86
2023/10/26 21:54:55;;;;;;;0.40;0.40;;;;;;;;;;6290162;22;20015;-87
2023/10/26 21:57:23;;;;;;;0.30;0.30;;;;;;;;;;6264019;22;20015;-87
2023/10/26 21:59:49;;;;;;;0.32;0.32;;;;;;;;;;6263177;22;20446;-85
2023/10/26 22:02:25;;;;;;;0.30;0.30;;;;;;;;;;6266385;22;20015;-86
2023/10/26 22:05:14;;;;;;;0.30;0.30;;;;;;;;;;6302478;22;20094;-87
2023/10/26 22:07:40;;;;;;;0.35;0.35;;;;;;;;;;6292606;22;20015;-86
2023/10/26 22:10:09;;;;;;;0.30;0.30;;;;;;;;;;6305402;22;20026;-85
2023/10/26 22:12:35;;;;;;;0.40;0.40;;;;;;;;;;6275377;22;20019;-86
2023/10/26 22:15:01;;;;;;;0.30;0.30;;;;;;;;;;6294714;22;20537;-88
2023/10/26 22:17:28;;;;;;;0.40;0.40;;;;;;;;;;6267982;22;20015;-87
2023/10/26 22:20:01;;;;;;;0.40;0.40;;;;;;;;;;6320602;22;20450;-88
2023/10/26 22:22:26;;;;;;;0.30;0.30;;;;;;;;;;6314458;22;20019;-88
2023/10/26 22:24:56;;;;;;;0.30;0.30;;;;;;;;;;6292837;22;20046;-85
2023/10/26 22:27:29;;;;;;;0.30;0.30;;;;;;;;;;6314519;22;20015;-87
2023/10/26 22:29:58;;;;;;;0.30;0.30;;;;;;;;;;6289532;22;20019;-87
2023/10/26 22:32:30;;;;;;;0.30;0.30;;;;;;;;;;6302767;22;20015;-86
2023/10/26 22:34:57;;;;;;;0.40;0.40;;;;;;;;;;6278367;22;20094;-87
2023/10/26 22:37:24;;;;;;;0.20;0.20;;;;;;;;;;6303708;22;20056;-87
2023/10/26 22:39:51;;;;;;;0.30;0.30;;;;;;;;;;6289600;22;20015;-86
2023/10/26 22:42:24;;;;;;;0.30;0.30;;;;;;;;;;6297027;22;20022;-86
2023/10/26 22:44:54;;;;;;;0.22;0.22;;;;;;;;;;6306306;22;20015;-86
2023/10/26 22:47:20;;;;;;;0.20;0.20;;;;;;;;;;6323577;22;20015;-87
2023/10/26 22:49:46;;;;;;;0.30;0.30;;;;;;;;;;6313690;22;20030;-86
2023/10/26 22:52:12;;;;;;;0.30;0.30;;;;;;;;;;6289085;22;20104;-87
2023/10/26 22:54:42;;;;;;;0.30;0.30;;;;;;;;;;6289092;22;20140;-87
2023/10/26 22:57:09;;;;;;;0.30;0.30;;;;;;;;;;6303163;22;20076;-87
2023/10/26 22:59:35;;;;;;;0.30;0.30;;;;;;;;;;6289588;22;20046;-87
2023/10/26 23:02:01;;;;;;;0.30;0.30;;;;;;;;;;6291743;22;20353;-86
2023/10/26 23:04:27;;;;;;;0.30;0.30;;;;;;;;;;6290825;22;20152;-85
2023/10/26 23:06:57;;;;;;;0.30;0.30;;;;;;;;;;6327503;22;20071;-87